Time;durP1;ratioP1;P1;durP2;ratioP2;P2;SDS_P1;SDS_P2;PMS_P1;PMS_P2;Temp;Humidity;BMP_temperature;BMP_pressure;BME280_temperature;BME280_humidity;BME280_pressure;Samples;Min_cycle;Max_cycle;Signal;HPM_P1;HPM_P2
2022/06/02 00:00:56;;;;;;;19.60;18.90;;;16.40;26.30;;;;;;4970536;28;20465;-80
2022/06/02 00:03:51;;;;;;;19.67;18.97;;;16.40;26.10;;;;;;4987306;28;20409;-81
2022/06/02 00:06:46;;;;;;;19.53;18.73;;;16.40;26.50;;;;;;4962660;28;20488;-80
2022/06/02 00:09:45;;;;;;;19.13;18.43;;;16.30;26.50;;;;;;4987855;28;20809;-81
2022/06/02 00:12:18;;;;;;;19.20;18.37;;;16.20;26.30;;;;;;4987277;28;20442;-79
2022/06/02 00:15:00;;;;;;;19.20;18.50;;;16.20;26.60;;;;;;4988538;28;20418;-80
2022/06/02 00:17:44;;;;;;;19.10;18.43;;;16.20;26.70;;;;;;4987733;28;20829;-81
2022/06/02 00:20:17;;;;;;;19.37;18.67;;;16.20;26.30;;;;;;4971969;28;20980;-80
2022/06/02 00:23:21;;;;;;;18.80;18.20;;;16.20;26.20;;;;;;4987037;28;20979;-80
2022/06/02 00:25:55;;;;;;;20.13;19.43;;;16.20;26.60;;;;;;4971641;28;20417;-81
2022/06/02 00:28:37;;;;;;;19.37;18.67;;;16.20;26.80;;;;;;4970347;28;20422;-81
2022/06/02 00:31:06;;;;;;;19.30;18.60;;;16.20;26.70;;;;;;4971843;28;20422;-81
2022/06/02 00:34:05;;;;;;;19.53;18.70;;;16.10;26.90;;;;;;4970456;28;20429;-80
2022/06/02 00:36:40;;;;;;;19.20;18.50;;;16.10;26.90;;;;;;4987125;28;20897;-81
2022/06/02 00:39:08;;;;;;;19.03;18.40;;;16.10;27.00;;;;;;4969415;28;20428;-81
2022/06/02 00:41:52;;;;;;;20.37;19.60;;;16.10;26.80;;;;;;4988893;28;20449;-81
2022/06/02 00:44:56;;;;;;;19.57;18.87;;;16.00;27.00;;;;;;4970019;28;20895;-80
2022/06/02 00:48:00;;;;;;;19.60;18.90;;;16.00;27.30;;;;;;4987280;28;20418;-81
2022/06/02 00:50:35;;;;;;;20.50;19.50;;;16.00;27.20;;;;;;4931972;29;20428;-80
2022/06/02 00:53:20;;;;;;;19.87;19.17;;;16.00;27.30;;;;;;4978552;28;20429;-80
2022/06/02 00:59:36;;;;;;;19.63;18.93;;;15.90;27.20;;;;;;4971030;28;20441;-80
2022/06/02 01:02:03;;;;;;;18.83;18.13;;;15.90;27.50;;;;;;4968591;28;21020;-79
2022/06/02 01:04:28;;;;;;;19.50;18.60;;;15.90;27.90;;;;;;4986276;28;20509;-81
2022/06/02 01:06:57;;;;;;;19.73;18.93;;;15.80;27.50;;;;;;4987932;28;20509;-81
2022/06/02 01:09:43;;;;;;;19.30;18.60;;;15.80;27.90;;;;;;4969268;28;20190;-81
2022/06/02 01:12:38;;;;;;;19.63;18.60;;;15.80;27.50;;;;;;4969460;28;20902;-81
2022/06/02 01:15:37;;;;;;;19.30;18.60;;;15.80;28.10;;;;;;4966895;28;20473;-81
2022/06/02 01:18:26;;;;;;;19.80;19.00;;;15.80;28.20;;;;;;4987691;28;20433;-81
2022/06/02 01:21:18;;;;;;;19.40;18.70;;;15.80;27.80;;;;;;4986554;28;20894;-80
2022/06/02 01:24:06;;;;;;;19.50;18.80;;;15.70;27.90;;;;;;4986467;28;20472;-80
2022/06/02 01:26:32;;;;;;;20.70;19.80;;;15.70;28.30;;;;;;4970169;28;20509;-80
2022/06/02 01:29:16;;;;;;;19.40;18.70;;;15.60;28.00;;;;;;4970493;28;20506;-82
2022/06/02 01:32:02;;;;;;;19.57;18.77;;;15.70;28.20;;;;;;4970852;28;20186;-83
2022/06/02 01:34:53;;;;;;;19.27;18.60;;;15.70;27.80;;;;;;4987567;28;20430;-81
2022/06/02 01:37:39;;;;;;;20.03;19.10;;;15.70;27.90;;;;;;4971588;28;20430;-80
2022/06/02 01:40:25;;;;;;;20.20;19.30;;;15.60;27.80;;;;;;4970468;28;20480;-80
2022/06/02 01:43:02;;;;;;;21.03;20.23;;;15.60;27.90;;;;;;4977807;28;20425;-80
2022/06/02 01:46:01;;;;;;;19.37;18.37;;;15.50;28.10;;;;;;4985360;28;20513;-80
2022/06/02 01:48:33;;;;;;;19.63;18.63;;;15.50;28.30;;;;;;4987128;28;20445;-80
2022/06/02 01:51:04;;;;;;;19.30;18.60;;;15.50;28.50;;;;;;4986328;28;20418;-80
2022/06/02 01:53:49;;;;;;;19.33;18.43;;;15.40;28.30;;;;;;4971228;28;20422;-79
2022/06/02 01:56:53;;;;;;;20.30;19.50;;;15.40;28.70;;;;;;4987241;28;20468;-81
2022/06/02 01:59:52;;;;;;;18.87;18.17;;;15.40;28.50;;;;;;4957629;28;20814;-80
2022/06/02 02:02:43;;;;;;;20.27;19.57;;;15.40;28.60;;;;;;4986422;28;20425;-80
2022/06/02 02:05:39;;;;;;;19.83;19.13;;;15.40;28.80;;;;;;4972361;28;20867;-80
2022/06/02 02:08:19;;;;;;;19.93;19.23;;;15.40;28.90;;;;;;4971113;28;21037;-80
2022/06/02 02:11:03;;;;;;;20.60;19.80;;;15.40;29.10;;;;;;4986946;28;20409;-80
2022/06/02 02:13:38;;;;;;;20.50;19.70;;;15.30;29.20;;;;;;4970323;28;20898;-80
2022/06/02 02:16:23;;;;;;;20.33;19.63;;;15.20;29.10;;;;;;4969607;28;20477;-80
2022/06/02 02:19:04;;;;;;;20.10;19.33;;;15.20;29.40;;;;;;4970171;28;20414;-80
2022/06/02 02:21:57;;;;;;;19.83;19.03;;;15.20;29.50;;;;;;4969787;28;20425;-81
2022/06/02 02:25:01;;;;;;;19.87;19.17;;;15.20;29.20;;;;;;4971053;28;20816;-81
2022/06/02 02:28:03;;;;;;;20.67;19.90;;;15.10;29.60;;;;;;4969564;28;20417;-80
2022/06/02 02:30:55;;;;;;;20.07;19.37;;;15.10;29.70;;;;;;4986279;28;20413;-80
2022/06/02 02:33:46;;;;;;;21.20;20.40;;;15.10;29.70;;;;;;4983189;28;20446;-80
2022/06/02 02:36:34;;;;;;;20.90;20.10;;;15.20;29.80;;;;;;4978264;28;20419;-80
2022/06/02 02:39:10;;;;;;;20.90;20.20;;;15.10;29.80;;;;;;4964836;28;20465;-80
2022/06/02 02:41:49;;;;;;;20.83;20.03;;;15.10;30.00;;;;;;4965444;28;20708;-80
2022/06/02 02:44:27;;;;;;;20.97;20.17;;;15.00;30.00;;;;;;4981512;28;20800;-80
2022/06/02 02:47:06;;;;;;;20.57;19.80;;;15.00;30.40;;;;;;4982102;28;20430;-80
2022/06/02 02:49:46;;;;;;;20.57;19.77;;;15.10;30.20;;;;;;4982297;28;20426;-79
2022/06/02 02:52:33;;;;;;;21.40;20.40;;;15.10;30.50;;;;;;4983378;28;20429;-80
2022/06/02 02:55:06;;;;;;;20.33;19.53;;;15.10;30.20;;;;;;4969216;28;20414;-81
2022/06/02 02:57:57;;;;;;;20.47;19.73;;;15.10;31.10;;;;;;4971272;28;20441;-81
2022/06/02 03:00:31;;;;;;;22.20;21.00;;;15.00;30.60;;;;;;4985727;28;20458;-83
2022/06/02 03:03:34;;;;;;;21.80;20.90;;;15.00;30.70;;;;;;4985899;28;20417;-81
2022/06/02 03:06:24;;;;;;;22.20;21.30;;;15.00;30.60;;;;;;4982503;28;20847;-80
2022/06/02 03:08:59;;;;;;;22.33;21.43;;;15.00;30.50;;;;;;4981957;28;21048;-80
2022/06/02 03:11:46;;;;;;;22.10;21.20;;;15.00;30.70;;;;;;4965491;28;20426;-79
2022/06/02 03:14:43;;;;;;;21.57;20.77;;;15.00;31.40;;;;;;4966122;28;20426;-80
2022/06/02 03:17:27;;;;;;;21.70;20.80;;;15.00;31.20;;;;;;4964303;28;20501;-80
2022/06/02 03:20:05;;;;;;;21.43;20.63;;;14.90;31.70;;;;;;4964790;28;20462;-80
2022/06/02 03:22:49;;;;;;;22.10;21.30;;;14.90;31.30;;;;;;4965253;28;20426;-80
2022/06/02 03:25:21;;;;;;;21.30;20.50;;;15.00;31.40;;;;;;4981242;28;20422;-80
2022/06/02 03:27:56;;;;;;;20.90;20.10;;;15.00;31.30;;;;;;4964894;28;20422;-80
2022/06/02 03:30:24;;;;;;;21.57;20.77;;;14.90;31.80;;;;;;4981361;28;20492;-80
2022/06/02 03:33:15;;;;;;;22.77;21.80;;;15.00;31.50;;;;;;4982133;28;20410;-81
2022/06/02 03:35:59;;;;;;;22.00;21.07;;;15.00;30.80;;;;;;4972352;28;20425;-81
2022/06/02 03:38:44;;;;;;;21.50;20.67;;;15.00;31.50;;;;;;4972528;28;20450;-79
2022/06/02 03:41:47;;;;;;;22.17;21.17;;;15.00;31.00;;;;;;4987726;28;20466;-80
2022/06/02 03:44:37;;;;;;;21.97;21.07;;;14.90;31.00;;;;;;4969483;28;20414;-79
2022/06/02 03:47:09;;;;;;;22.53;21.63;;;14.80;31.30;;;;;;4969653;28;20480;-79
2022/06/02 03:49:34;;;;;;;21.33;20.43;;;14.80;31.20;;;;;;4967303;28;20836;-79
2022/06/02 03:52:22;;;;;;;23.10;21.73;;;14.70;31.40;;;;;;4970556;28;20433;-79
2022/06/02 03:55:15;;;;;;;22.13;21.23;;;14.70;31.50;;;;;;4982379;28;20218;-79
2022/06/02 03:57:47;;;;;;;21.77;20.77;;;14.60;31.40;;;;;;4969915;28;20441;-81
2022/06/02 04:00:26;;;;;;;21.63;20.67;;;14.70;31.70;;;;;;4968532;28;20519;-81
2022/06/02 04:02:56;;;;;;;23.33;22.33;;;14.70;32.00;;;;;;4971457;28;20961;-80
2022/06/02 04:05:57;;;;;;;23.40;22.50;;;14.70;31.80;;;;;;4985842;28;20421;-80
2022/06/02 04:09:01;;;;;;;22.93;22.00;;;14.70;31.20;;;;;;4969477;28;20412;-81
2022/06/02 04:14:46;;;;;;;23.20;22.20;;;14.70;31.70;;;;;;4928950;28;20413;-81
2022/06/02 04:17:17;;;;;;;23.00;22.10;;;14.70;32.50;;;;;;4989453;28;20414;-79
2022/06/02 04:23:33;;;;;;;24.10;23.00;;;14.60;32.60;;;;;;4972404;28;20921;-80
2022/06/02 04:26:32;;;;;;;22.50;21.60;;;14.70;32.70;;;;;;4970741;28;20433;-80
2022/06/02 04:29:24;;;;;;;24.17;22.63;;;14.70;31.40;;;;;;4971693;28;20406;-81
2022/06/02 04:32:02;;;;;;;22.40;21.40;;;14.70;31.30;;;;;;4985696;28;20891;-81
2022/06/02 04:34:46;;;;;;;23.73;22.73;;;14.70;31.10;;;;;;4971521;28;20417;-80
2022/06/02 04:37:52;;;;;;;23.63;22.63;;;14.70;30.90;;;;;;4971979;28;20421;-80
2022/06/02 04:40:59;;;;;;;22.70;21.80;;;14.80;30.80;;;;;;4971228;28;20538;-80
2022/06/02 04:43:32;;;;;;;22.37;21.47;;;14.80;30.50;;;;;;4915462;29;20424;-82
2022/06/02 04:46:20;;;;;;;23.23;22.13;;;14.80;30.80;;;;;;4914856;29;20423;-81
2022/06/02 04:49:09;;;;;;;23.20;22.13;;;14.70;30.80;;;;;;4959024;28;20464;-81
2022/06/02 04:51:47;;;;;;;23.63;22.50;;;14.80;31.10;;;;;;4968644;28;20433;-80
2022/06/02 04:54:28;;;;;;;22.80;21.70;;;14.80;30.40;;;;;;4969183;28;20437;-81
2022/06/02 04:57:32;;;;;;;21.70;20.73;;;14.90;30.50;;;;;;4984075;28;20448;-82
2022/06/02 05:00:00;;;;;;;22.90;21.90;;;14.80;29.70;;;;;;4916093;28;20469;-81
2022/06/02 05:03:08;;;;;;;23.30;22.00;;;14.90;29.30;;;;;;4970246;28;20417;-81
2022/06/02 05:05:42;;;;;;;24.80;23.63;;;14.90;29.30;;;;;;4944200;28;20422;-81
2022/06/02 05:08:43;;;;;;;26.60;25.27;;;15.00;29.60;;;;;;4970967;28;20922;-81
2022/06/02 05:11:36;;;;;;;23.27;22.17;;;15.00;29.30;;;;;;4969813;28;20793;-81
2022/06/02 05:14:39;;;;;;;22.67;21.77;;;15.00;29.90;;;;;;4971945;28;20838;-81
2022/06/02 05:17:22;;;;;;;23.33;22.23;;;15.10;30.00;;;;;;4988315;28;20425;-81
2022/06/02 05:20:12;;;;;;;23.37;22.40;;;15.20;29.40;;;;;;4972546;28;20585;-81
2022/06/02 05:22:54;;;;;;;23.90;22.90;;;15.20;29.20;;;;;;4973340;28;20422;-82
2022/06/02 05:25:57;;;;;;;24.13;22.53;;;15.20;29.10;;;;;;4987528;28;20977;-81
2022/06/02 05:28:41;;;;;;;23.93;22.93;;;15.30;29.30;;;;;;4971919;28;20909;-82
2022/06/02 05:31:45;;;;;;;22.90;21.83;;;15.30;29.20;;;;;;4971288;28;20462;-81
2022/06/02 05:34:36;;;;;;;23.30;22.30;;;15.40;29.10;;;;;;4971844;28;20422;-82
2022/06/02 05:37:12;;;;;;;22.17;21.17;;;15.40;29.00;;;;;;4976845;28;20682;-82
2022/06/02 05:39:57;;;;;;;23.20;22.10;;;15.50;28.90;;;;;;4988120;28;20473;-81
2022/06/02 05:42:54;;;;;;;22.27;21.30;;;15.50;28.80;;;;;;4970924;28;20457;-81
2022/06/02 05:45:37;;;;;;;22.30;21.40;;;15.40;28.60;;;;;;4971191;28;20893;-81
2022/06/02 05:48:21;;;;;;;21.23;20.33;;;15.40;28.30;;;;;;4987250;28;20430;-81
2022/06/02 05:51:05;;;;;;;21.63;20.73;;;15.40;27.70;;;;;;4972658;28;20480;-81
2022/06/02 05:53:33;;;;;;;22.00;21.10;;;15.60;28.40;;;;;;4970970;28;20430;-81
2022/06/02 05:56:10;;;;;;;23.00;21.80;;;15.70;28.40;;;;;;4973196;28;20460;-81
2022/06/02 05:58:42;;;;;;;23.70;22.30;;;15.70;26.80;;;;;;4971891;28;20428;-81
2022/06/02 06:01:30;;;;;;;22.60;21.53;;;15.70;27.10;;;;;;4972835;28;20461;-81
2022/06/02 06:04:30;;;;;;;23.10;22.30;;;15.80;25.90;;;;;;4972809;28;20426;-80
2022/06/02 06:07:22;;;;;;;23.10;22.10;;;15.80;26.50;;;;;;4972355;28;20426;-81
2022/06/02 06:10:04;;;;;;;23.20;22.10;;;15.80;26.20;;;;;;4978317;28;20433;-81
2022/06/02 06:13:20;;;;;;;22.30;21.20;;;15.90;26.50;;;;;;4989256;28;20410;-79
2022/06/02 06:15:54;;;;;;;21.40;20.57;;;15.90;26.20;;;;;;4944689;28;20444;-81
2022/06/02 06:18:31;;;;;;;20.87;19.97;;;15.80;26.20;;;;;;4970035;28;20434;-80
2022/06/02 06:21:03;;;;;;;22.07;21.17;;;15.90;26.70;;;;;;4970185;28;20550;-81
2022/06/02 06:23:50;;;;;;;22.03;21.23;;;15.90;26.60;;;;;;4953880;28;20434;-82
2022/06/02 06:26:33;;;;;;;22.27;21.43;;;15.90;27.10;;;;;;4953539;28;20429;-81
2022/06/02 06:29:11;;;;;;;21.97;21.03;;;16.00;26.60;;;;;;4969773;28;20908;-81
2022/06/02 06:32:12;;;;;;;22.90;21.80;;;16.00;27.30;;;;;;4954750;28;20776;-81
2022/06/02 06:34:57;;;;;;;22.65;21.55;;;16.00;26.90;;;;;;4968618;28;20486;-81
2022/06/02 06:37:58;;;;;;;22.03;20.93;;;15.90;27.20;;;;;;4953253;28;20202;-81
2022/06/02 06:40:44;;;;;;;20.87;20.00;;;16.00;27.60;;;;;;4952304;28;20463;-81
2022/06/02 06:43:28;;;;;;;21.47;20.40;;;16.00;26.90;;;;;;4952953;28;20430;-81
2022/06/02 06:46:08;;;;;;;21.73;20.70;;;16.00;27.30;;;;;;4952350;28;20517;-81
2022/06/02 06:48:41;;;;;;;20.10;19.40;;;16.10;27.30;;;;;;4952703;29;20460;-81
2022/06/02 06:51:32;;;;;;;21.10;19.90;;;16.10;27.40;;;;;;4968420;28;20507;-81
2022/06/02 06:54:35;;;;;;;20.53;19.73;;;16.20;27.40;;;;;;4969465;28;20461;-81
2022/06/02 06:57:20;;;;;;;21.20;20.33;;;16.30;26.90;;;;;;4952201;28;20435;-83
2022/06/02 07:00:09;;;;;;;22.17;21.27;;;16.40;26.80;;;;;;4953176;28;20510;-82
2022/06/02 07:02:38;;;;;;;21.20;20.37;;;16.60;27.10;;;;;;4952557;28;20454;-81
2022/06/02 07:05:22;;;;;;;22.00;21.20;;;16.60;26.60;;;;;;4952694;29;20423;-82
2022/06/02 07:08:01;;;;;;;19.90;18.80;;;16.60;26.60;;;;;;4952092;28;20915;-82
2022/06/02 07:10:43;;;;;;;21.87;20.97;;;16.60;26.50;;;;;;4967679;28;20429;-82
2022/06/02 07:13:12;;;;;;;21.20;20.30;;;16.70;26.20;;;;;;4951986;28;20411;-81
2022/06/02 07:15:44;;;;;;;21.40;20.60;;;16.80;26.80;;;;;;4952068;29;20438;-81
2022/06/02 07:18:25;;;;;;;20.83;20.03;;;16.90;26.50;;;;;;4966921;28;20427;-81
2022/06/02 07:21:12;;;;;;;20.60;19.80;;;16.80;25.40;;;;;;4950016;28;20546;-81
2022/06/02 07:23:47;;;;;;;20.73;19.80;;;16.90;26.30;;;;;;4951824;29;20426;-83
2022/06/02 07:27:06;;;;;;;21.50;20.50;;;16.90;25.70;;;;;;4952939;29;20505;-82
2022/06/02 07:29:38;;;;;;;20.30;19.53;;;17.10;26.40;;;;;;4951650;28;20411;-80
2022/06/02 07:32:22;;;;;;;20.40;19.60;;;17.20;26.70;;;;;;4969332;28;20437;-82
2022/06/02 07:35:13;;;;;;;20.80;20.00;;;17.20;25.10;;;;;;5024645;23;20458;-82
2022/06/02 07:38:16;;;;;;;20.13;19.40;;;17.10;25.60;;;;;;4993253;28;20448;-83
2022/06/02 07:41:13;;;;;;;20.40;19.53;;;17.10;26.70;;;;;;4990743;28;20459;-83
2022/06/02 07:44:07;;;;;;;19.83;19.03;;;17.30;26.10;;;;;;4982441;28;20418;-84
2022/06/02 07:46:59;;;;;;;21.40;19.83;;;17.40;26.10;;;;;;4989868;28;20420;-82
2022/06/02 07:49:53;;;;;;;20.50;19.60;;;17.50;26.90;;;;;;4990330;28;20421;-84
2022/06/02 07:52:35;;;;;;;21.63;20.43;;;17.60;26.10;;;;;;4991029;28;20441;-84
2022/06/02 07:55:17;;;;;;;21.37;20.10;;;17.50;25.90;;;;;;4990901;28;20475;-84
2022/06/02 07:58:06;;;;;;;21.70;20.70;;;17.60;25.40;;;;;;4989120;28;20778;-82
2022/06/02 08:00:51;;;;;;;20.40;19.60;;;17.60;25.30;;;;;;4990949;28;20292;-84
2022/06/02 08:03:44;;;;;;;20.27;19.57;;;17.60;26.00;;;;;;4991022;28;20932;-83
2022/06/02 08:06:19;;;;;;;20.80;19.90;;;17.60;25.10;;;;;;4990764;28;20785;-83
2022/06/02 08:09:14;;;;;;;22.00;21.10;;;17.50;25.20;;;;;;4991045;28;20421;-82
2022/06/02 08:12:27;;;;;;;21.10;20.40;;;17.30;25.50;;;;;;4990666;28;20413;-82
2022/06/02 08:15:26;;;;;;;21.37;20.57;;;17.50;26.30;;;;;;4964518;28;20425;-82
2022/06/02 08:18:13;;;;;;;20.97;20.17;;;17.70;25.70;;;;;;4991037;28;20464;-83
2022/06/02 08:20:58;;;;;;;21.50;20.70;;;17.60;25.10;;;;;;4991949;28;20496;-83
2022/06/02 08:23:24;;;;;;;21.50;20.70;;;17.60;25.30;;;;;;4994072;28;20499;-83
2022/06/02 08:25:54;;;;;;;21.40;20.60;;;17.70;25.80;;;;;;4993843;28;20220;-82
2022/06/02 08:28:49;;;;;;;20.90;20.20;;;17.70;25.70;;;;;;4994475;28;20527;-82
2022/06/02 08:31:59;;;;;;;21.23;20.00;;;17.70;25.00;;;;;;4994357;28;20639;-83
2022/06/02 08:34:41;;;;;;;21.37;20.47;;;17.90;25.50;;;;;;4938177;29;20518;-83
2022/06/02 08:37:17;;;;;;;20.97;20.17;;;18.00;25.00;;;;;;4953984;29;20449;-83
2022/06/02 08:40:13;;;;;;;25.00;23.13;;;18.10;25.10;;;;;;4979779;28;20456;-82
2022/06/02 08:43:17;;;;;;;21.30;20.30;;;18.20;24.50;;;;;;4993744;28;20422;-82
2022/06/02 08:46:20;;;;;;;20.77;19.87;;;18.30;23.40;;;;;;4993606;28;20425;-82
2022/06/02 08:49:14;;;;;;;20.37;19.57;;;18.20;23.70;;;;;;4993978;28;20791;-82
2022/06/02 08:52:07;;;;;;;20.63;19.83;;;18.30;23.70;;;;;;4993388;28;20532;-82
2022/06/02 08:55:04;;;;;;;22.30;21.10;;;18.30;24.00;;;;;;4993119;28;20441;-83
2022/06/02 08:58:15;;;;;;;21.47;20.47;;;18.40;23.50;;;;;;4994130;28;21018;-82
2022/06/02 09:01:01;;;;;;;21.73;20.83;;;18.40;23.60;;;;;;4979082;28;20457;-83
2022/06/02 09:03:45;;;;;;;22.00;21.10;;;18.50;23.40;;;;;;4993781;28;20425;-83
2022/06/02 09:06:38;;;;;;;21.80;20.90;;;18.50;23.50;;;;;;4992864;28;20409;-82
2022/06/02 09:09:34;;;;;;;22.17;21.17;;;18.70;23.10;;;;;;4993663;28;20428;-82
2022/06/02 09:12:17;;;;;;;21.87;20.97;;;18.80;23.60;;;;;;4993815;28;20405;-82
2022/06/02 09:15:24;;;;;;;21.63;20.83;;;18.80;23.20;;;;;;4993763;28;20780;-82
2022/06/02 09:17:56;;;;;;;22.60;21.50;;;18.80;23.60;;;;;;4991489;28;20849;-81
2022/06/02 09:20:43;;;;;;;22.77;21.60;;;18.90;23.60;;;;;;4993421;28;20456;-82
2022/06/02 09:23:15;;;;;;;21.50;20.60;;;19.00;23.30;;;;;;4993245;28;20417;-82
2022/06/02 09:25:51;;;;;;;20.37;19.57;;;18.90;23.00;;;;;;4992927;28;20417;-82
2022/06/02 09:28:50;;;;;;;22.60;21.60;;;19.00;23.20;;;;;;4993403;28;20417;-81
2022/06/02 09:31:40;;;;;;;21.87;20.97;;;19.10;24.00;;;;;;4993511;28;20453;-83
2022/06/02 09:34:24;;;;;;;22.20;21.10;;;19.20;24.00;;;;;;4992852;28;20417;-81
2022/06/02 09:37:08;;;;;;;22.13;21.17;;;19.40;23.20;;;;;;4992871;28;20444;-81
2022/06/02 09:40:07;;;;;;;22.70;21.80;;;19.60;22.90;;;;;;4993082;28;20461;-82
2022/06/02 09:42:57;;;;;;;22.00;21.10;;;19.50;23.10;;;;;;4992717;28;20480;-82
2022/06/02 09:45:49;;;;;;;22.90;21.90;;;19.50;22.70;;;;;;4992670;28;20421;-82
2022/06/02 09:48:21;;;;;;;22.50;21.50;;;19.60;22.20;;;;;;4991760;28;20428;-81
2022/06/02 09:51:25;;;;;;;22.03;21.13;;;19.80;21.60;;;;;;4993146;28;20416;-81
2022/06/02 09:54:23;;;;;;;21.10;20.30;;;19.80;21.60;;;;;;4994134;28;20470;-81
2022/06/02 09:56:52;;;;;;;21.67;20.83;;;19.70;22.00;;;;;;4992524;28;20512;-81
2022/06/02 09:59:40;;;;;;;22.80;21.80;;;19.80;22.00;;;;;;4992233;28;20420;-82
2022/06/02 10:02:15;;;;;;;21.60;20.80;;;19.90;22.00;;;;;;4992906;28;20424;-82
2022/06/02 10:05:28;;;;;;;22.37;21.53;;;19.80;22.80;;;;;;4991895;28;20409;-82
2022/06/02 10:08:16;;;;;;;21.80;21.00;;;19.80;22.10;;;;;;4970830;28;20428;-81
2022/06/02 10:11:00;;;;;;;22.00;21.20;;;19.80;22.10;;;;;;4992752;28;20937;-81
2022/06/02 10:14:10;;;;;;;22.60;21.60;;;19.90;22.10;;;;;;4992826;28;20776;-81
2022/06/02 10:16:48;;;;;;;21.27;20.47;;;20.10;22.30;;;;;;4984672;28;20421;-82
2022/06/02 10:19:16;;;;;;;21.93;21.13;;;20.30;21.50;;;;;;4992784;28;20520;-82
2022/06/02 10:21:57;;;;;;;21.27;20.47;;;20.30;21.70;;;;;;4992697;28;20426;-82
2022/06/02 10:24:41;;;;;;;21.70;20.70;;;20.40;21.70;;;;;;4992125;28;20409;-82
2022/06/02 10:27:28;;;;;;;20.90;20.10;;;20.40;21.30;;;;;;4991400;28;20402;-82
2022/06/02 10:30:32;;;;;;;20.10;19.40;;;20.50;20.60;;;;;;4992814;28;20768;-83
2022/06/02 10:33:15;;;;;;;21.30;20.40;;;20.50;21.50;;;;;;4992306;28;20516;-81
2022/06/02 10:36:09;;;;;;;20.93;20.13;;;20.60;21.00;;;;;;4992178;28;20444;-82
2022/06/02 10:38:55;;;;;;;21.40;20.47;;;20.80;21.20;;;;;;4992516;28;20432;-82
2022/06/02 10:41:33;;;;;;;20.77;20.00;;;20.80;22.00;;;;;;4992527;28;20467;-81
2022/06/02 10:44:13;;;;;;;20.43;19.60;;;21.00;20.60;;;;;;4993122;28;20401;-82
2022/06/02 10:46:50;;;;;;;21.60;20.80;;;21.10;20.70;;;;;;4991786;28;20413;-82
2022/06/02 10:49:30;;;;;;;22.07;21.03;;;21.10;20.60;;;;;;4991947;28;20413;-82
2022/06/02 10:52:24;;;;;;;20.10;19.27;;;21.20;20.60;;;;;;4991001;28;20785;-83
2022/06/02 10:55:01;;;;;;;20.90;20.10;;;21.40;20.10;;;;;;4992664;28;20409;-82
2022/06/02 10:57:57;;;;;;;21.37;20.57;;;21.30;19.70;;;;;;4991644;28;20421;-83
2022/06/02 11:00:45;;;;;;;20.17;19.47;;;21.20;20.50;;;;;;4991505;28;20469;-82
2022/06/02 11:03:38;;;;;;;20.93;20.13;;;21.10;21.80;;;;;;4991428;28;20507;-82
2022/06/02 11:06:22;;;;;;;21.00;19.63;;;21.10;20.80;;;;;;4987050;28;20409;-82
2022/06/02 11:09:12;;;;;;;22.40;21.30;;;21.30;20.80;;;;;;4991510;28;20409;-82
2022/06/02 11:11:56;;;;;;;21.77;20.97;;;21.60;21.00;;;;;;4990920;28;20224;-82
2022/06/02 11:14:54;;;;;;;21.83;21.03;;;21.70;19.80;;;;;;4993578;28;20409;-83
2022/06/02 11:17:23;;;;;;;21.70;20.90;;;21.70;20.20;;;;;;4991238;28;20933;-83
2022/06/02 11:20:03;;;;;;;21.27;20.47;;;21.70;20.00;;;;;;4992078;28;21046;-83
2022/06/02 11:22:44;;;;;;;21.47;20.47;;;21.80;19.90;;;;;;4991872;28;20421;-84
2022/06/02 11:25:28;;;;;;;20.30;19.50;;;21.70;19.60;;;;;;4992479;28;20457;-83
2022/06/02 11:28:31;;;;;;;20.73;19.93;;;21.80;20.00;;;;;;4992430;28;20429;-83
2022/06/02 11:31:16;;;;;;;20.90;20.10;;;22.00;20.50;;;;;;4991022;28;20429;-82
2022/06/02 11:34:19;;;;;;;20.70;19.80;;;22.20;19.50;;;;;;4991495;28;20424;-83
2022/06/02 11:37:08;;;;;;;20.10;19.40;;;22.20;18.90;;;;;;4990680;28;20468;-83
2022/06/02 11:39:52;;;;;;;20.57;19.80;;;21.90;19.60;;;;;;4991240;28;20913;-86
2022/06/02 11:43:06;;;;;;;20.30;19.40;;;22.00;19.50;;;;;;4991157;28;20416;-85
2022/06/02 11:45:40;;;;;;;20.60;19.80;;;22.10;19.20;;;;;;4983484;28;20469;-85
2022/06/02 11:48:37;;;;;;;20.70;19.90;;;22.10;19.90;;;;;;4991397;28;20909;-85
2022/06/02 11:51:14;;;;;;;20.70;19.90;;;21.90;19.10;;;;;;4992188;28;20409;-85
2022/06/02 11:53:43;;;;;;;20.40;19.70;;;21.90;20.00;;;;;;4991099;28;20516;-86
2022/06/02 11:56:26;;;;;;;19.97;19.17;;;21.90;19.70;;;;;;4992571;28;20416;-85
2022/06/02 11:58:54;;;;;;;21.10;20.10;;;21.90;20.00;;;;;;4995354;28;20471;-85
2022/06/02 12:01:40;;;;;;;20.77;19.97;;;22.00;19.10;;;;;;4996235;28;20464;-86
2022/06/02 12:04:11;;;;;;;21.33;20.33;;;22.10;19.70;;;;;;4995321;28;20507;-85
2022/06/02 12:06:43;;;;;;;20.93;20.13;;;22.10;19.30;;;;;;4994551;28;20483;-85
2022/06/02 12:09:33;;;;;;;21.13;20.33;;;22.10;19.40;;;;;;4995085;28;20917;-85
2022/06/02 12:12:23;;;;;;;23.67;22.20;;;22.00;20.30;;;;;;4995418;28;20413;-85
2022/06/02 12:15:06;;;;;;;22.77;21.67;;;22.20;20.10;;;;;;4995549;28;20448;-85
2022/06/02 12:17:41;;;;;;;20.37;19.57;;;22.40;20.10;;;;;;4996071;28;20819;-85
2022/06/02 12:20:44;;;;;;;20.60;19.80;;;22.40;19.40;;;;;;4997111;28;20944;-85
2022/06/02 12:23:36;;;;;;;21.47;20.60;;;22.60;19.00;;;;;;4995877;28;20409;-85
2022/06/02 12:26:36;;;;;;;21.87;20.53;;;22.70;19.00;;;;;;4995771;28;20442;-85
2022/06/02 12:29:12;;;;;;;20.50;19.70;;;22.70;19.10;;;;;;4995796;28;20769;-83
2022/06/02 12:32:02;;;;;;;20.57;19.70;;;22.60;19.20;;;;;;4995730;28;20191;-86
2022/06/02 12:34:40;;;;;;;20.50;19.40;;;22.50;19.30;;;;;;4994633;28;20914;-86
2022/06/02 12:37:40;;;;;;;20.33;19.37;;;22.50;20.10;;;;;;4994878;28;20494;-85
2022/06/02 12:40:29;;;;;;;20.17;19.40;;;22.40;19.50;;;;;;4994758;28;20468;-87
2022/06/02 12:43:14;;;;;;;20.50;19.70;;;22.30;19.50;;;;;;4993584;28;20927;-85
2022/06/02 12:46:32;;;;;;;20.70;19.90;;;22.40;19.20;;;;;;4994519;28;20186;-85
2022/06/02 12:49:33;;;;;;;20.30;19.50;;;22.30;19.50;;;;;;4994019;28;20886;-85
2022/06/02 12:52:33;;;;;;;21.10;20.20;;;22.30;19.40;;;;;;4994309;28;20421;-84
2022/06/02 12:55:33;;;;;;;20.63;19.63;;;22.50;19.30;;;;;;4994596;28;20991;-84
2022/06/02 12:58:28;;;;;;;19.97;19.27;;;22.60;19.80;;;;;;4995062;28;20464;-84
2022/06/02 13:01:39;;;;;;;21.67;20.27;;;22.60;18.90;;;;;;4973649;28;20469;-87
2022/06/02 13:04:42;;;;;;;19.87;19.07;;;22.70;19.00;;;;;;4976435;28;20398;-85
2022/06/02 13:07:45;;;;;;;20.60;19.50;;;22.80;19.40;;;;;;4973346;28;20422;-83
2022/06/02 13:10:46;;;;;;;20.47;19.67;;;23.00;18.40;;;;;;4974783;28;20429;-84
2022/06/02 13:13:34;;;;;;;21.17;20.30;;;23.10;19.00;;;;;;4975669;28;20417;-83
2022/06/02 13:16:21;;;;;;;20.33;19.53;;;23.30;18.10;;;;;;4974029;28;20836;-86
2022/06/02 13:18:55;;;;;;;20.57;19.57;;;23.50;18.00;;;;;;4975152;28;20481;-84
2022/06/02 13:21:58;;;;;;;20.80;19.97;;;23.40;18.30;;;;;;4974969;28;20992;-85
2022/06/02 13:24:33;;;;;;;20.30;19.50;;;23.40;17.80;;;;;;4974948;28;20758;-84
2022/06/02 13:27:17;;;;;;;20.33;19.53;;;23.50;17.70;;;;;;4974569;28;20418;-85
2022/06/02 13:30:04;;;;;;;19.73;18.97;;;23.40;18.30;;;;;;4974640;28;20433;-85
2022/06/02 13:33:07;;;;;;;20.53;19.73;;;23.30;18.90;;;;;;4975421;28;20799;-85
2022/06/02 13:35:42;;;;;;;19.90;19.20;;;23.10;18.60;;;;;;4974049;28;20946;-85
2022/06/02 13:38:28;;;;;;;20.77;19.70;;;23.10;19.10;;;;;;4973955;28;20484;-85
2022/06/02 13:41:24;;;;;;;20.07;19.27;;;23.10;19.40;;;;;;4973985;28;20478;-85
2022/06/02 13:44:16;;;;;;;19.70;18.80;;;23.00;19.00;;;;;;4973551;28;20425;-85
2022/06/02 13:47:03;;;;;;;19.97;19.10;;;22.90;18.80;;;;;;4973565;28;20420;-85
2022/06/02 13:49:35;;;;;;;38.40;31.00;;;22.80;19.90;;;;;;4973011;28;20779;-85
2022/06/02 13:52:15;;;;;;;22.13;20.73;;;22.80;19.30;;;;;;4973605;28;20425;-84
2022/06/02 13:58:15;;;;;;;19.50;18.80;;;22.60;19.60;;;;;;4974385;28;20953;-85
2022/06/02 14:00:58;;;;;;;22.00;20.90;;;22.60;20.10;;;;;;4973644;28;20965;-85
2022/06/02 14:03:54;;;;;;;21.17;20.17;;;22.70;19.80;;;;;;4973131;28;20418;-85
2022/06/02 14:06:21;;;;;;;20.73;19.73;;;22.80;19.70;;;;;;4973318;28;20429;-85
2022/06/02 14:08:53;;;;;;;20.47;19.50;;;22.80;19.50;;;;;;4972780;28;20422;-85
2022/06/02 14:11:30;;;;;;;19.67;18.97;;;23.00;18.90;;;;;;4973256;28;20430;-85
2022/06/02 14:14:17;;;;;;;20.03;19.23;;;23.10;18.60;;;;;;4973248;28;20530;-86
2022/06/02 14:17:30;;;;;;;20.00;19.30;;;23.00;19.30;;;;;;4972281;28;20414;-85
2022/06/02 14:20:20;;;;;;;20.77;19.97;;;23.30;19.10;;;;;;4936414;29;20497;-85